Youngstown Warren Regional Airport
KYNG : now visible

Airfield :











YOU CAN JOIN US ON...

 
LOGIN :

Register | Disclaimer

   EN    FR    IT 

 









Legend :    VFR   Marginal VFR   IFR   Intensive IFR   Very Intensive IFR
Visi :
Ceiling :
>= 8 km
>= 3000ft
5 to 8 km
1000 to 3000 ft
1500m to 5 km
500 to 1000 ft
800 to 1500m
200 to 500 ft
< 800m
< 200 ft
Symbols :   Thunderstorms  Fog  Heavy snow  Heavy precipitations  Wind > 20 kt






- Airport Elevation : 1192 ft
- IATA code : YNG


KYNG - Youngstown Warren Regional

CURRENT METAR :
  • 220415Z 34014KT 10SM FEW020 BKN025 OVC039 18/12 A2978 RMK AO2 T01780117

EXPIRED METARs :
  • 220351Z 32011KT 10SM SCT025 BKN036 OVC110 18/14 A2978 RMK AO2 SLP077 T01830139
  • 220251Z 28005KT 10SM FEW028 SCT046 OVC110 18/14 A2977 RMK AO2 SLP073 T01830139 51019
  • 220151Z 29006KT 10SM FEW028 OVC130 19/14 A2976 RMK AO2 SLP070 T01890139

TAF KYNG
Valid from the 22 at 00:00 until the 23 at 00:00 UTC


212341Z 2200/2224 31010KT P6SM BKN035
FM220400 32005KT P6SM OVC025
FM221400 33005KT P6SM BKN035
FM221700 30005KT P6SM SCT110
KZOB FIR / North America



MET'MAP, your aeronautical weather chart ! - Copyright ORBIFLY December 2007 - Disclaimer

ORBIFLY MET'MAP TEAM :

Programming & Development : Alexandra Zaïnal
Concept & original design : Baudouin d'Aumeries
Assistance for programming : Marc-Olivier Méhu
Technical & hardware support : Manuel Goepfert

Contact : metmap@orbifly.com




SOURCES & CREDITS :

   NOAA       Earth
Advisory